Overview Statistics Trail Chart Weather Telemetry Raw packets
 

This is the latest recevied weather packets stored in our database for station/object OE5MMP-13. If no packets are shown the sender has not sent any weather packets the latest 10 day(s).

<< 32 33 34 35 36 37 38 >>
Time Temp. Humidity Pressure Rain* Wind** Luminosity Snow
1788200008 19.44° C 74% 1017.7 hPa 0.25 mm - 0 W/m² -
1788199408 20.56° C 69% 1017.7 hPa 0.25 mm - 0 W/m² -
1788198808 21.67° C 65% 1017.7 hPa 0 mm - 0 W/m² -
1788198208 22.22° C 61% 1017.4 hPa 0 mm - 14 W/m² -
1788197608 22.22° C 58% 1017.5 hPa 0 mm - 21 W/m² -
1788197008 22.78° C 59% 1017.5 hPa 0 mm - 17 W/m² -
1788196407 22.78° C 60% 1017.4 hPa 0 mm - 30 W/m² -
1788195807 22.78° C 60% 1017.4 hPa 0 mm - 31 W/m² -
1788195208 23.33° C 60% 1017.4 hPa 0 mm - 88 W/m² -
1788194608 23.33° C 60% 1017.2 hPa 0 mm - 56 W/m² -
1788194007 23.33° C 59% 1016.9 hPa 0 mm - 83 W/m² -
1788193408 23.33° C 58% 1016.9 hPa 0 mm - 75 W/m² -
1788192807 23.33° C 59% 1016.8 hPa 0 mm - 119 W/m² -
1788192208 23.33° C 59% 1016.8 hPa 0 mm - 112 W/m² -
1788191607 23.89° C 59% 1017.1 hPa 0 mm - 115 W/m² -
1788191007 23.33° C 59% 1016.9 hPa 0 mm - 148 W/m² -
1788190407 24.44° C 57% 1017.2 hPa 0 mm - 62 W/m² -
1788189808 23.89° C 58% 1017.3 hPa 0 mm - 328 W/m² -
1788189207 23.89° C 58% 1017.4 hPa 0 mm - 379 W/m² -
1788188607 23.33° C 59% 1017.4 hPa 0 mm - 190 W/m² -
1788188007 23.33° C 60% 1017.4 hPa 0 mm - 138 W/m² -
1788187407 23.89° C 59% 1017.6 hPa 0 mm - 114 W/m² -
1788186807 23.89° C 59% 1017.6 hPa 0 mm - 616 W/m² -
1788186207 23.89° C 59% 1017.6 hPa 0 mm - 208 W/m² -
1788185607 23.33° C 59% 1017.4 hPa 0 mm - 196 W/m² -

* Rain latest hour (hover to see other rain measurements)
** Current wind speed in m/s (hover to see current wind gust speed)